createdAt,value
2022-11-24T00:01:21.954Z,94.50
2022-11-24T00:03:59.109Z,85.75
2022-11-24T00:06:27.723Z,80.32
2022-11-24T00:08:56.654Z,86.13
2022-11-24T00:11:29.514Z,95.88
2022-11-24T00:13:58.528Z,95.80
2022-11-24T00:16:31.480Z,109.13
2022-11-24T00:19:00.789Z,85.93
2022-11-24T00:21:30.509Z,92.78
2022-11-24T00:24:01.923Z,90.43
2022-11-24T00:26:34.024Z,85.55
2022-11-24T00:29:05.907Z,85.03
2022-11-24T00:31:38.864Z,105.53
2022-11-24T00:34:10.950Z,98.55
2022-11-24T00:36:39.987Z,95.75
2022-11-24T00:39:12.748Z,110.03
2022-11-24T00:41:41.525Z,110.93
2022-11-24T00:44:09.585Z,108.15
2022-11-24T00:46:37.668Z,118.05
2022-11-24T00:49:06.585Z,101.93
2022-11-24T00:51:34.245Z,106.40
2022-11-24T00:54:02.767Z,110.75
2022-11-24T00:56:31.384Z,112.38
2022-11-24T00:58:59.410Z,108.20
2022-11-24T01:01:28.943Z,120.00
2022-11-24T01:03:56.923Z,99.30
2022-11-24T01:06:26.829Z,96.18
2022-11-24T01:08:56.430Z,105.68
2022-11-24T01:11:29.888Z,109.43
2022-11-24T01:13:59.943Z,112.13
2022-11-24T01:16:30.484Z,108.65
2022-11-24T01:18:58.193Z,110.25
2022-11-24T01:21:25.927Z,103.95
2022-11-24T01:23:53.656Z,114.63
2022-11-24T01:26:25.443Z,105.32
2022-11-24T01:28:57.776Z,121.07
2022-11-24T01:31:26.830Z,120.63
2022-11-24T01:33:54.960Z,117.38
2022-11-24T01:36:23.043Z,128.18
2022-11-24T01:38:50.950Z,120.38
2022-11-24T01:41:24.460Z,133.68
2022-11-24T01:43:53.573Z,124.10
2022-11-24T01:46:49.896Z,124.03
2022-11-24T01:49:22.217Z,132.18
2022-11-24T01:51:58.253Z,139.25
2022-11-24T01:54:31.220Z,156.20
2022-11-24T01:57:02.858Z,153.60
2022-11-24T01:59:31.434Z,152.73
2022-11-24T02:01:59.148Z,160.07
2022-11-24T02:04:32.345Z,161.00
2022-11-24T02:07:02.122Z,171.45
2022-11-24T02:09:39.590Z,167.38
2022-11-24T02:12:07.602Z,186.40
2022-11-24T02:14:38.479Z,191.75
2022-11-24T02:17:05.931Z,195.82
2022-11-24T02:19:55.304Z,215.38
2022-11-24T02:22:28.249Z,209.40
2022-11-24T02:25:04.696Z,248.15
2022-11-24T02:27:32.185Z,199.38
2022-11-24T02:29:59.840Z,233.80
2022-11-24T02:32:28.674Z,226.75
2022-11-24T02:35:06.135Z,196.65
2022-11-24T02:37:33.614Z,208.30
2022-11-24T02:40:01.268Z,209.45
2022-11-24T02:42:32.953Z,222.95
2022-11-24T02:45:02.023Z,196.90
2022-11-24T02:47:29.390Z,194.52
2022-11-24T02:49:57.363Z,189.57
2022-11-24T02:52:25.816Z,168.65
2022-11-24T02:54:53.539Z,175.82
2022-11-24T02:57:22.886Z,156.93
2022-11-24T02:59:50.779Z,143.15
2022-11-24T03:02:18.147Z,163.05
2022-11-24T03:04:46.006Z,150.30
2022-11-24T03:07:13.395Z,140.63
2022-11-24T03:09:41.046Z,130.38
2022-11-24T03:12:08.439Z,116.25
2022-11-24T03:14:36.276Z,125.78
2022-11-24T03:17:04.467Z,114.93
2022-11-24T03:19:32.397Z,104.63
2022-11-24T03:22:00.000Z,122.53
2022-11-24T03:24:27.673Z,111.15
2022-11-24T03:26:54.988Z,107.18
2022-11-24T03:29:23.360Z,87.47
2022-11-24T03:31:50.737Z,103.13
2022-11-24T03:34:18.425Z,90.75
2022-11-24T03:36:45.745Z,101.60
2022-11-24T03:39:13.820Z,99.50
2022-11-24T03:41:41.159Z,105.25
2022-11-24T03:44:11.711Z,106.07
2022-11-24T03:46:39.267Z,91.93
2022-11-24T03:49:06.977Z,97.75
2022-11-24T03:51:34.369Z,98.28
2022-11-24T03:54:02.034Z,91.03
2022-11-24T03:56:29.395Z,95.85
2022-11-24T03:58:57.067Z,84.38
2022-11-24T04:01:24.519Z,83.70
2022-11-24T04:03:52.194Z,80.13
2022-11-24T04:06:19.557Z,78.68
2022-11-24T04:08:47.207Z,69.65
2022-11-24T04:11:34.578Z,65.05
2022-11-24T04:14:02.239Z,62.08
2022-11-24T04:16:29.790Z,65.90
2022-11-24T04:18:57.720Z,58.53
2022-11-24T04:21:25.044Z,57.75
2022-11-24T04:23:52.697Z,61.15
2022-11-24T04:26:20.074Z,59.80
2022-11-24T04:28:47.809Z,56.15
2022-11-24T04:31:15.200Z,50.85
2022-11-24T04:33:43.007Z,53.08
2022-11-24T04:36:10.464Z,59.08
2022-11-24T04:39:25.774Z,60.08
2022-11-24T04:41:25.419Z,58.60
2022-11-24T04:43:53.194Z,52.85
2022-11-24T04:46:20.646Z,49.78
2022-11-24T04:48:48.374Z,57.85
2022-11-24T04:51:15.921Z,56.22
2022-11-24T04:53:43.567Z,63.78
2022-11-24T04:56:10.972Z,56.13
2022-11-24T04:58:38.688Z,64.50
2022-11-24T05:01:09.786Z,65.82
2022-11-24T05:03:40.692Z,70.68
2022-11-24T05:06:09.223Z,65.35
2022-11-24T05:08:36.860Z,61.47
2022-11-24T05:11:06.359Z,60.95
2022-11-24T05:13:34.674Z,86.72
2022-11-24T05:16:02.136Z,59.80
2022-11-24T05:18:29.836Z,81.72
2022-11-24T05:20:58.978Z,65.93
2022-11-24T05:23:27.168Z,60.95
2022-11-24T05:25:54.448Z,66.60
2022-11-24T05:28:22.038Z,61.78
2022-11-24T05:30:49.319Z,71.55
2022-11-24T05:33:22.858Z,68.07
2022-11-24T05:35:51.117Z,84.80
2022-11-24T05:38:19.280Z,68.78
2022-11-24T05:40:46.742Z,101.18
2022-11-24T05:43:16.298Z,89.15
2022-11-24T05:45:45.100Z,78.43
2022-11-24T05:48:14.558Z,81.70
2022-11-24T05:50:42.276Z,76.15
2022-11-24T05:53:12.807Z,81.50
2022-11-24T05:55:41.119Z,75.70
2022-11-24T05:58:10.294Z,79.53
2022-11-24T06:00:38.003Z,77.15
2022-11-24T06:03:05.665Z,77.65
2022-11-24T06:05:33.137Z,90.75
2022-11-24T06:08:00.961Z,89.03
2022-11-24T06:10:28.964Z,108.90
2022-11-24T06:12:56.765Z,101.75
2022-11-24T06:15:23.925Z,94.03
2022-11-24T06:17:55.940Z,91.03
2022-11-24T06:20:29.777Z,80.20
2022-11-24T06:23:00.191Z,91.32
2022-11-24T06:25:28.526Z,82.53
2022-11-24T06:27:56.268Z,76.05
2022-11-24T06:30:23.492Z,90.13
2022-11-24T06:32:55.226Z,91.28
2022-11-24T06:35:22.687Z,82.85
2022-11-24T08:27:19.994Z,70.60
2022-11-24T08:29:47.888Z,70.47
2022-11-24T08:32:21.985Z,65.68
2022-11-24T08:34:49.886Z,65.82
2022-11-24T08:37:17.639Z,72.60
2022-11-24T08:39:45.821Z,75.45
2022-11-24T08:42:12.971Z,72.50
2022-11-24T08:44:40.532Z,82.68
2022-11-24T08:47:07.726Z,72.03
2022-11-24T08:49:35.355Z,64.50
2022-11-24T08:52:02.572Z,66.45
2022-11-24T08:54:31.157Z,70.70
2022-11-24T08:56:59.213Z,76.47
2022-11-24T08:59:27.228Z,71.47
2022-11-24T09:01:55.047Z,76.32
2022-11-24T09:04:22.753Z,71.78
2022-11-24T09:06:50.042Z,68.95
2022-11-24T09:09:18.147Z,76.97
2022-11-24T09:11:45.317Z,79.70
2022-11-24T09:14:12.945Z,87.70
2022-11-24T09:16:40.294Z,80.57
2022-11-24T09:19:08.319Z,88.28
2022-11-24T09:21:38.998Z,78.97
2022-11-24T09:24:07.809Z,83.97
2022-11-24T09:26:37.244Z,91.70
2022-11-24T09:29:08.128Z,83.07
2022-11-24T09:31:36.703Z,81.43
2022-11-24T09:34:07.349Z,95.63
2022-11-24T09:36:35.565Z,101.15
2022-11-24T09:39:03.787Z,92.50
2022-11-24T09:41:46.231Z,98.15
2022-11-24T09:44:25.884Z,92.80
2022-11-24T09:46:56.328Z,105.80
2022-11-24T09:49:37.632Z,101.45
2022-11-24T09:52:11.076Z,105.75
2022-11-24T09:54:54.102Z,116.13
2022-11-24T09:57:24.903Z,100.00
2022-11-24T09:59:52.606Z,99.63
2022-11-24T10:02:19.878Z,117.35
2022-11-24T10:04:47.745Z,117.82
2022-11-24T10:07:28.031Z,109.25
2022-11-24T10:10:01.569Z,108.22
2022-11-24T10:13:06.517Z,106.30
2022-11-24T10:15:48.348Z,85.70
2022-11-24T10:18:41.999Z,105.45
2022-11-24T10:21:31.650Z,112.32
2022-11-24T10:24:36.735Z,92.38
2022-11-24T10:27:18.649Z,86.57
2022-11-24T10:29:51.632Z,107.97
2022-11-24T10:32:24.352Z,83.65
2022-11-24T10:34:51.937Z,88.85
2022-11-24T10:37:37.790Z,88.95
2022-11-24T10:40:41.007Z,82.88
2022-11-24T10:43:11.196Z,91.72
2022-11-24T10:45:39.696Z,82.07
2022-11-24T10:48:22.006Z,83.47
2022-11-24T10:50:49.513Z,78.03
2022-11-24T10:53:22.628Z,78.38
2022-11-24T10:55:58.033Z,71.28
2022-11-24T10:58:36.018Z,88.55
2022-11-24T11:01:14.437Z,91.75
2022-11-24T11:03:53.754Z,78.10
2022-11-24T11:06:22.324Z,81.82
2022-11-24T11:08:49.819Z,80.13
2022-11-24T11:11:22.272Z,83.10
2022-11-24T11:14:03.176Z,82.35
2022-11-24T11:17:06.858Z,80.07
2022-11-24T11:19:54.184Z,78.68
2022-11-24T11:22:26.753Z,76.10
2022-11-24T11:25:12.728Z,85.07
2022-11-24T11:27:41.220Z,79.93
2022-11-24T11:36:16.113Z,71.30
2022-11-24T11:38:45.265Z,56.65
2022-11-24T11:41:34.306Z,66.07
2022-11-24T11:44:22.335Z,75.65
2022-11-24T11:46:50.002Z,76.53
2022-11-24T11:49:17.276Z,63.90
2022-11-24T11:51:56.659Z,65.03
2022-11-24T11:54:33.350Z,60.03
2022-11-24T11:57:51.181Z,80.78
2022-11-24T12:00:22.496Z,86.75
2022-11-24T12:03:08.643Z,71.55
2022-11-24T12:05:54.183Z,62.67
2022-11-24T12:09:17.884Z,66.88
2022-11-24T12:11:46.600Z,71.90
2022-11-24T12:14:39.331Z,73.05
2022-11-24T12:17:29.846Z,72.57
2022-11-24T12:20:19.065Z,71.72
2022-11-24T12:23:11.554Z,54.85
2022-11-24T12:25:46.716Z,61.75
2022-11-24T12:28:38.485Z,68.97
2022-11-24T12:31:08.409Z,66.25
2022-11-24T12:34:01.151Z,72.13
2022-11-24T12:36:50.742Z,69.28
2022-11-24T12:39:34.315Z,72.72
2022-11-24T12:42:10.192Z,69.97
2022-11-24T12:45:02.228Z,70.30
2022-11-24T12:47:52.608Z,63.00
2022-11-24T12:50:24.505Z,62.17
2022-11-24T12:53:03.442Z,66.97
2022-11-24T12:55:33.931Z,61.70
2022-11-24T12:58:15.020Z,55.00
2022-11-24T13:01:19.096Z,54.10
2022-11-24T13:03:59.124Z,52.63
2022-11-24T13:06:44.439Z,55.22
2022-11-24T13:09:15.460Z,50.45
2022-11-24T13:11:54.460Z,51.05
2022-11-24T13:14:38.601Z,53.55
2022-11-24T13:17:43.542Z,59.67
2022-11-24T13:20:20.449Z,54.25
2022-11-24T13:23:01.508Z,54.80
2022-11-24T13:25:34.765Z,79.40
2022-11-24T13:28:06.803Z,63.97
2022-11-24T13:30:34.820Z,76.13
2022-11-24T13:33:16.170Z,85.70
2022-11-24T13:36:04.617Z,76.45
2022-11-24T13:38:44.884Z,65.80
2022-11-24T13:41:32.784Z,69.68
2022-11-24T13:44:16.456Z,63.67
2022-11-24T13:47:07.390Z,66.95
2022-11-24T13:49:43.230Z,59.03
2022-11-24T13:52:36.949Z,51.00
2022-11-24T13:55:23.774Z,69.15
2022-11-24T13:57:56.566Z,54.25
2022-11-24T14:00:32.303Z,43.72
2022-11-24T14:03:06.747Z,51.55
2022-11-24T14:05:39.313Z,47.78
2022-11-24T14:08:24.635Z,46.42
2022-11-24T14:10:56.502Z,49.47
2022-11-24T14:13:28.654Z,45.72
2022-11-24T14:16:17.648Z,50.13
2022-11-24T14:18:48.100Z,51.58
2022-11-24T14:21:29.130Z,65.50
2022-11-24T14:24:01.930Z,53.47
2022-11-24T14:26:36.556Z,60.90
2022-11-24T14:29:23.558Z,59.78
2022-11-24T14:31:56.714Z,59.53
2022-11-24T14:34:35.842Z,59.13
2022-11-24T14:37:03.508Z,63.38
2022-11-24T14:39:40.150Z,67.65
2022-11-24T14:42:18.384Z,71.20
2022-11-24T14:44:54.438Z,64.00
2022-11-24T14:47:32.472Z,61.90
2022-11-24T14:50:13.333Z,56.38
2022-11-24T14:52:56.808Z,69.70
2022-11-24T14:55:32.730Z,68.68
2022-11-24T14:58:00.307Z,57.88
2022-11-24T15:00:33.755Z,57.30
2022-11-24T15:03:01.091Z,48.83
2022-11-24T15:05:55.059Z,55.22
2022-11-24T15:08:24.707Z,60.10
2022-11-24T15:11:03.153Z,53.33
2022-11-24T15:13:37.459Z,49.55
2022-11-24T15:16:16.503Z,60.33
2022-11-24T15:18:47.470Z,54.83
2022-11-24T15:21:19.448Z,53.83
2022-11-24T15:24:22.885Z,58.15
2022-11-24T15:26:50.633Z,51.78
2022-11-24T15:29:17.885Z,61.97
2022-11-24T15:31:50.949Z,57.55
2022-11-24T15:34:19.874Z,59.88
2022-11-24T15:36:47.480Z,60.20
2022-11-24T15:39:14.821Z,61.17
2022-11-24T15:41:42.514Z,76.78
2022-11-24T15:44:10.565Z,80.15
2022-11-24T15:46:41.069Z,76.50
2022-11-24T15:49:08.604Z,80.53
2022-11-24T15:51:38.858Z,59.92
2022-11-24T15:54:07.385Z,76.93
2022-11-24T15:56:36.760Z,54.97
2022-11-24T15:59:04.816Z,59.88
2022-11-24T16:01:34.709Z,53.22
2022-11-24T16:04:02.930Z,53.63
2022-11-24T16:06:30.632Z,53.90
2022-11-24T16:08:58.551Z,73.95
2022-11-24T16:11:26.393Z,76.97
2022-11-24T16:13:54.470Z,70.40
2022-11-24T16:16:23.731Z,49.33
2022-11-24T16:18:51.178Z,62.22
2022-11-24T16:21:19.650Z,62.75
2022-11-24T16:23:47.988Z,63.10
2022-11-24T16:26:16.626Z,56.78
2022-11-24T16:28:46.016Z,53.97
2022-11-24T16:31:16.428Z,50.28
2022-11-24T16:33:45.677Z,44.53
2022-11-24T16:36:14.440Z,43.38
2022-11-24T16:38:42.554Z,47.38
2022-11-24T16:41:10.765Z,51.10
2022-11-24T16:43:39.235Z,52.35
2022-11-24T16:46:17.512Z,55.08
2022-11-24T16:48:46.723Z,59.10
2022-11-24T16:51:15.582Z,58.15
2022-11-24T16:53:43.452Z,54.72
2022-11-24T16:56:11.281Z,55.38
2022-11-24T16:58:40.417Z,55.80
2022-11-24T17:01:11.232Z,87.95
2022-11-24T17:03:39.388Z,93.10
2022-11-24T17:06:10.495Z,102.38
2022-11-24T17:08:40.837Z,91.65
2022-11-24T17:11:13.952Z,81.50
2022-11-24T17:13:43.086Z,68.85
2022-11-24T17:16:13.125Z,53.05
2022-11-24T17:18:41.679Z,54.38
2022-11-24T17:21:15.312Z,60.15
2022-11-24T17:23:42.834Z,74.63
2022-11-24T17:26:17.795Z,74.60
2022-11-24T17:28:45.388Z,66.55
2022-11-24T17:31:18.982Z,63.50
2022-11-24T17:33:46.583Z,55.25
2022-11-24T17:36:14.348Z,57.60
2022-11-24T17:38:41.960Z,47.65
2022-11-24T17:41:10.295Z,44.38
2022-11-24T17:43:38.015Z,50.55
2022-11-24T17:46:06.531Z,57.55
2022-11-24T17:48:35.961Z,73.45
2022-11-24T17:51:10.334Z,71.85
2022-11-24T17:53:39.340Z,65.57
2022-11-24T17:56:08.704Z,77.05
2022-11-24T17:58:41.269Z,68.45
2022-11-24T18:01:12.596Z,55.80
2022-11-24T18:03:41.305Z,51.30
2022-11-24T18:06:14.168Z,52.88
2022-11-24T18:08:44.126Z,58.53
2022-11-24T18:11:14.944Z,70.07
2022-11-24T18:13:58.390Z,61.85
2022-11-24T18:16:30.534Z,49.70
2022-11-24T18:19:08.293Z,46.20
2022-11-24T18:21:38.893Z,46.53
2022-11-24T18:24:08.049Z,39.25
2022-11-24T18:26:35.824Z,38.80
2022-11-24T18:29:03.361Z,32.65
2022-11-24T18:31:32.455Z,32.15
2022-11-24T18:34:00.136Z,26.60
2022-11-24T18:36:30.629Z,33.38
2022-11-24T18:39:04.862Z,35.00
2022-11-24T18:41:32.705Z,36.58
2022-11-24T18:44:08.249Z,36.38
2022-11-24T18:49:04.837Z,32.72
2022-11-24T18:51:32.878Z,35.45
2022-11-24T18:54:02.261Z,42.58
2022-11-24T18:56:31.345Z,43.42
2022-11-24T18:58:59.415Z,37.63
2022-11-24T19:01:29.010Z,42.10
2022-11-24T19:03:59.443Z,36.13
2022-11-24T19:06:35.722Z,37.03
2022-11-24T19:09:09.305Z,35.30
2022-11-24T19:11:39.615Z,36.58
2022-11-24T19:14:08.602Z,53.20
2022-11-24T19:16:36.530Z,44.28
2022-11-24T19:19:04.625Z,41.53
2022-11-24T19:21:35.606Z,47.20
2022-11-24T19:24:05.878Z,53.88
2022-11-24T19:26:37.956Z,58.75
2022-11-24T19:29:07.585Z,48.17
2022-11-24T19:31:36.454Z,45.33
2022-11-24T19:34:06.101Z,48.55
2022-11-24T19:36:34.093Z,41.88
2022-11-24T19:39:04.939Z,42.60
2022-11-24T19:41:34.077Z,37.47
2022-11-24T19:44:01.435Z,39.92
2022-11-24T19:46:30.412Z,40.00
2022-11-24T19:49:01.830Z,41.42
2022-11-24T19:51:35.238Z,41.80
2022-11-24T19:54:04.315Z,42.45
2022-11-24T19:56:36.725Z,42.88
2022-11-24T19:59:07.697Z,46.75
2022-11-24T20:01:40.292Z,48.88
2022-11-24T20:04:15.071Z,52.17
2022-11-24T20:06:45.426Z,56.67
2022-11-24T20:09:15.055Z,63.13
2022-11-24T20:11:43.570Z,56.92
2022-11-24T20:14:13.478Z,59.35
2022-11-24T20:16:41.671Z,63.50
2022-11-24T20:19:12.726Z,63.97
2022-11-24T20:21:48.032Z,60.70
2022-11-24T20:24:19.640Z,72.63
2022-11-24T20:26:53.893Z,62.03
2022-11-24T20:29:21.625Z,65.05
2022-11-24T20:31:52.047Z,68.00
2022-11-24T20:34:21.646Z,69.40
2022-11-24T20:36:52.940Z,66.88
2022-11-24T20:39:29.577Z,60.25
2022-11-24T20:41:57.766Z,54.13
2022-11-24T20:44:27.857Z,56.80
2022-11-24T20:46:58.427Z,57.25
2022-11-24T20:49:26.892Z,64.88
2022-11-24T20:51:55.243Z,57.42
2022-11-24T20:54:23.771Z,55.15
2022-11-24T20:56:51.714Z,43.33
2022-11-24T20:59:22.714Z,42.22
2022-11-24T21:01:52.293Z,40.88
2022-11-24T21:04:22.817Z,35.33
2022-11-24T21:06:50.714Z,37.10
2022-11-24T21:09:18.251Z,42.67
2022-11-24T21:11:46.517Z,35.38
2022-11-24T21:14:14.289Z,37.53
2022-11-24T21:16:43.459Z,36.17
2022-11-24T21:19:13.851Z,32.88
2022-11-24T21:21:43.000Z,36.55
2022-11-24T21:24:14.470Z,35.05
2022-11-24T21:26:43.459Z,47.35
2022-11-24T21:29:17.296Z,42.75
2022-11-24T21:31:45.164Z,62.55
2022-11-24T21:34:15.434Z,54.47
2022-11-24T21:36:45.300Z,48.00
2022-11-24T21:39:14.225Z,52.60
2022-11-24T21:41:42.478Z,51.60
2022-11-24T21:44:12.518Z,48.03
2022-11-24T21:46:44.987Z,51.45
2022-11-24T21:49:19.565Z,54.55
2022-11-24T21:51:47.681Z,57.65
2022-11-24T21:54:14.833Z,54.08
2022-11-24T21:56:42.487Z,50.00
2022-11-24T21:59:09.805Z,58.22
2022-11-24T22:01:37.421Z,47.45
2022-11-24T22:04:05.039Z,47.28
2022-11-24T22:06:33.438Z,39.05
2022-11-24T22:09:00.731Z,49.30
2022-11-24T22:11:28.484Z,40.17
2022-11-24T22:13:55.722Z,34.08
2022-11-24T22:16:24.994Z,41.63
2022-11-24T22:18:52.655Z,33.53
2022-11-24T22:21:23.998Z,29.38
2022-11-24T22:23:55.163Z,27.83
2022-11-24T22:26:24.256Z,29.77
2022-11-24T22:28:52.127Z,27.45
2022-11-24T22:31:25.092Z,30.08
2022-11-24T22:33:53.656Z,26.48
2022-11-24T22:36:23.095Z,29.00
2022-11-24T22:39:03.386Z,29.92
2022-11-24T22:41:33.443Z,27.70
2022-11-24T22:44:00.846Z,30.55
2022-11-24T22:46:30.563Z,25.45
2022-11-24T22:49:01.817Z,38.08
2022-11-24T22:51:32.592Z,31.55
2022-11-24T22:54:02.719Z,31.55
2022-11-24T22:56:33.683Z,31.35
2022-11-24T22:59:02.219Z,31.77
2022-11-24T23:01:31.271Z,31.50
2022-11-24T23:03:58.934Z,35.70
2022-11-24T23:06:29.011Z,32.25
2022-11-24T23:08:57.758Z,33.00
2022-11-24T23:11:34.922Z,34.25
2022-11-24T23:14:05.697Z,30.25
2022-11-24T23:16:33.508Z,33.67
2022-11-24T23:19:00.742Z,33.50
2022-11-24T23:21:30.462Z,33.22
2022-11-24T23:24:00.343Z,29.33
2022-11-24T23:26:30.615Z,30.73
2022-11-24T23:28:57.980Z,31.10
2022-11-24T23:31:30.313Z,26.55
2022-11-24T23:34:02.961Z,25.90
2022-11-24T23:36:31.550Z,32.17
2022-11-24T23:39:06.786Z,31.08
2022-11-24T23:41:35.265Z,30.88
2022-11-24T23:44:02.740Z,30.88
2022-11-24T23:46:31.066Z,34.65
2022-11-24T23:48:58.751Z,31.50
2022-11-24T23:51:31.841Z,33.83
2022-11-24T23:54:00.430Z,27.08
2022-11-24T23:56:32.767Z,26.73
2022-11-24T23:59:02.195Z,26.98
